Time;durP1;ratioP1;P1;durP2;ratioP2;P2;SDS_P1;SDS_P2;PMS_P1;PMS_P2;Temp;Humidity;BMP_temperature;BMP_pressure;BME280_temperature;BME280_humidity;BME280_pressure;Samples;Min_cycle;Max_cycle;Signal;HPM_P1;HPM_P2
2022/03/07 00:00:24;;;;;;;2.88;0.75;;;19.70;41.30;;;;;;4933763;29;20064;-84
2022/03/07 00:02:50;;;;;;;2.65;0.70;;;19.60;41.60;;;;;;4934507;29;20412;-84
2022/03/07 00:05:15;;;;;;;4.18;1.27;;;21.30;42.10;;;;;;4934230;29;20039;-84
2022/03/07 00:07:41;;;;;;;2.88;0.90;;;19.70;41.50;;;;;;4933460;29;20531;-84
2022/03/07 00:10:10;;;;;;;2.50;0.77;;;20.30;41.70;;;;;;4934209;29;20058;-84
2022/03/07 00:12:35;;;;;;;1.90;0.82;;;20.40;41.70;;;;;;4934200;29;20048;-84
2022/03/07 00:15:07;;;;;;;2.53;0.70;;;19.30;41.20;;;;;;4933737;29;20055;-84
2022/03/07 00:17:39;;;;;;;1.75;0.60;;;19.60;41.30;;;;;;4934648;29;20043;-84
2022/03/07 00:20:05;;;;;;;2.60;0.70;;;19.60;42.00;;;;;;4934215;29;20062;-82
2022/03/07 00:22:46;;;;;;;2.15;0.75;;;19.60;41.80;;;;;;4917671;29;20126;-83
2022/03/07 00:25:27;;;;;;;2.25;0.70;;;19.10;41.30;;;;;;4934069;29;20058;-84
2022/03/07 00:27:53;;;;;;;2.55;0.65;;;19.60;41.60;;;;;;4934108;29;20082;-83
2022/03/07 00:30:25;;;;;;;2.63;0.70;;;19.80;41.40;;;;;;4933257;29;20079;-84
2022/03/07 00:33:10;;;;;;;2.20;0.82;;;19.60;41.90;;;;;;4934109;29;20055;-84
2022/03/07 00:35:47;;;;;;;3.30;0.75;;;19.30;41.20;;;;;;4932998;29;20142;-84
2022/03/07 00:38:13;;;;;;;3.83;1.05;;;19.40;41.20;;;;;;4932249;29;20062;-84
2022/03/07 00:40:39;;;;;;;3.15;0.85;;;18.10;40.40;;;;;;4933420;29;20047;-84
2022/03/07 00:43:08;;;;;;;2.28;0.70;;;19.60;42.40;;;;;;4933070;29;20107;-84
2022/03/07 00:45:34;;;;;;;1.67;0.57;;;20.80;41.90;;;;;;4933365;29;20053;-84
2022/03/07 00:48:23;;;;;;;1.67;0.60;;;19.50;41.30;;;;;;4932847;29;20059;-84
2022/03/07 00:50:55;;;;;;;1.90;0.60;;;20.90;42.40;;;;;;4933073;29;20048;-84
2022/03/07 00:53:23;;;;;;;2.17;0.75;;;20.80;42.80;;;;;;4933913;29;20095;-84
2022/03/07 00:56:00;;;;;;;2.15;0.73;;;19.50;41.50;;;;;;4933628;29;20063;-84
2022/03/07 00:58:35;;;;;;;2.08;0.80;;;17.50;40.50;;;;;;4932704;29;20039;-84
2022/03/07 01:01:07;;;;;;;1.85;0.70;;;21.10;42.20;;;;;;4933277;29;20061;-83
2022/03/07 01:03:35;;;;;;;3.05;0.88;;;20.60;42.30;;;;;;4932612;29;20040;-84
2022/03/07 01:06:04;;;;;;;2.35;0.77;;;19.70;41.60;;;;;;4932818;29;20492;-84
2022/03/07 01:08:48;;;;;;;2.17;0.85;;;19.90;41.90;;;;;;4933114;29;20071;-84
2022/03/07 01:11:14;;;;;;;2.03;0.77;;;19.40;41.70;;;;;;4932213;29;20558;-84
2022/03/07 01:13:40;;;;;;;2.58;0.70;;;18.90;41.80;;;;;;4917601;29;20055;-84
2022/03/07 01:16:14;;;;;;;2.03;0.90;;;19.50;41.60;;;;;;4933092;29;20415;-84
2022/03/07 01:18:46;;;;;;;2.45;0.75;;;20.10;41.80;;;;;;4932512;29;20055;-85
2022/03/07 01:21:12;;;;;;;1.98;0.82;;;21.00;42.70;;;;;;4932590;29;20052;-84
2022/03/07 01:23:47;;;;;;;1.77;0.60;;;20.20;41.70;;;;;;4933088;29;20122;-84
2022/03/07 01:26:13;;;;;;;2.05;0.75;;;19.20;42.00;;;;;;4932417;29;20050;-83
2022/03/07 01:28:38;;;;;;;2.95;0.90;;;19.40;41.20;;;;;;4932788;29;20055;-84
2022/03/07 01:31:19;;;;;;;2.50;0.77;;;19.30;41.40;;;;;;4927597;29;20066;-84
2022/03/07 01:34:03;;;;;;;2.38;1.10;;;19.50;41.80;;;;;;4932033;29;20047;-84
2022/03/07 01:36:37;;;;;;;2.10;0.75;;;18.40;40.90;;;;;;4932647;29;20051;-84
2022/03/07 01:39:03;;;;;;;2.42;0.82;;;18.20;41.10;;;;;;4932296;29;20083;-84
2022/03/07 01:41:34;;;;;;;3.03;0.73;;;20.50;42.20;;;;;;4932661;29;20093;-84
2022/03/07 01:44:19;;;;;;;1.83;0.82;;;20.20;42.90;;;;;;4932443;29;20160;-84
2022/03/07 01:46:49;;;;;;;2.17;0.80;;;18.90;41.10;;;;;;4912753;29;20111;-84
2022/03/07 01:49:21;;;;;;;2.15;0.88;;;21.00;42.50;;;;;;4913666;29;20055;-85
2022/03/07 01:51:46;;;;;;;2.03;0.80;;;20.50;42.50;;;;;;4913595;29;20043;-84
2022/03/07 01:54:14;;;;;;;1.90;0.70;;;20.90;42.20;;;;;;4913436;29;20060;-85
2022/03/07 01:56:42;;;;;;;3.25;0.73;;;19.30;41.20;;;;;;4913712;29;20075;-84
2022/03/07 01:59:18;;;;;;;2.13;0.80;;;19.30;41.20;;;;;;4913456;29;20100;-84
2022/03/07 02:01:44;;;;;;;2.17;0.70;;;19.30;41.20;;;;;;4912900;29;20381;-84
2022/03/07 02:04:13;;;;;;;2.85;0.80;;;19.30;41.20;;;;;;4913621;29;20552;-84
2022/03/07 02:06:39;;;;;;;2.22;0.98;;;19.30;41.20;;;;;;4912923;29;20552;-84
2022/03/07 02:09:05;;;;;;;2.58;0.85;;;19.30;42.00;;;;;;4913597;29;20044;-84
2022/03/07 02:11:32;;;;;;;2.05;0.80;;;19.30;41.30;;;;;;4913347;29;20501;-84
2022/03/07 02:13:57;;;;;;;1.80;0.88;;;19.30;41.30;;;;;;4912670;29;20104;-84
2022/03/07 02:16:23;;;;;;;3.08;0.75;;;19.30;41.20;;;;;;4913519;29;20047;-84
2022/03/07 02:18:49;;;;;;;2.05;0.75;;;19.30;41.20;;;;;;4913373;29;20040;-85
2022/03/07 02:21:16;;;;;;;1.77;0.70;;;19.30;41.20;;;;;;4912459;29;20077;-84
2022/03/07 02:23:42;;;;;;;2.08;0.90;;;19.30;41.30;;;;;;4913266;29;20527;-85
2022/03/07 02:26:15;;;;;;;1.98;0.80;;;19.30;41.30;;;;;;4913058;29;20080;-84
2022/03/07 02:28:42;;;;;;;2.60;1.00;;;19.30;41.20;;;;;;4912462;29;20056;-84
2022/03/07 02:31:07;;;;;;;1.85;0.90;;;19.20;41.20;;;;;;4913272;29;20048;-85
2022/03/07 02:33:35;;;;;;;2.00;0.70;;;19.20;41.20;;;;;;4913107;29;20055;-84
2022/03/07 02:36:02;;;;;;;3.05;0.90;;;19.20;41.20;;;;;;4912314;29;20056;-84
2022/03/07 02:38:36;;;;;;;2.25;0.73;;;19.20;41.30;;;;;;4912958;29;20408;-84
2022/03/07 02:41:08;;;;;;;2.58;0.80;;;20.50;42.60;;;;;;4912552;29;20064;-84
2022/03/07 02:43:33;;;;;;;2.40;0.80;;;20.00;41.80;;;;;;4912358;29;20048;-84
2022/03/07 02:46:01;;;;;;;2.45;0.70;;;20.40;42.00;;;;;;4927585;29;20066;-84
2022/03/07 02:48:27;;;;;;;2.03;0.73;;;20.30;41.90;;;;;;4931880;29;20111;-85
2022/03/07 02:50:57;;;;;;;2.72;0.80;;;19.20;41.20;;;;;;4931444;29;20047;-84
2022/03/07 02:53:23;;;;;;;2.17;0.88;;;19.20;41.30;;;;;;4931778;29;20059;-84
2022/03/07 02:55:48;;;;;;;1.90;0.88;;;19.20;41.20;;;;;;4931782;29;20058;-85
2022/03/07 02:58:14;;;;;;;2.78;1.00;;;19.20;41.20;;;;;;4915259;29;20047;-84
2022/03/07 03:00:42;;;;;;;2.17;0.80;;;19.10;41.20;;;;;;4931578;29;20099;-84
2022/03/07 03:03:08;;;;;;;1.92;1.00;;;19.20;41.30;;;;;;4933818;29;20073;-84
2022/03/07 03:05:36;;;;;;;1.50;0.73;;;19.20;41.30;;;;;;4935672;29;20142;-83
2022/03/07 03:08:02;;;;;;;2.42;0.80;;;19.10;41.20;;;;;;4935653;29;20142;-83
2022/03/07 03:10:41;;;;;;;2.60;1.00;;;19.10;41.30;;;;;;4934518;29;20616;-84
2022/03/07 03:13:06;;;;;;;3.58;0.93;;;18.80;41.50;;;;;;4935357;29;20616;-84
2022/03/07 03:15:41;;;;;;;2.40;0.88;;;20.00;41.90;;;;;;4935200;29;20126;-84
2022/03/07 03:18:07;;;;;;;2.47;0.80;;;20.70;42.40;;;;;;4934930;29;20405;-84
2022/03/07 03:20:32;;;;;;;2.10;0.80;;;18.50;41.30;;;;;;4935741;29;20055;-84
2022/03/07 03:23:07;;;;;;;2.55;0.93;;;19.10;41.40;;;;;;4935296;29;20533;-84
2022/03/07 03:25:39;;;;;;;1.70;0.80;;;17.70;41.00;;;;;;4934447;29;20051;-84
2022/03/07 03:28:07;;;;;;;2.03;0.80;;;19.00;42.00;;;;;;4935202;29;20488;-84
2022/03/07 03:30:33;;;;;;;2.47;0.90;;;18.80;41.40;;;;;;4935165;29;20048;-84
2022/03/07 03:32:58;;;;;;;2.55;1.10;;;20.50;42.70;;;;;;4934536;29;20070;-84
2022/03/07 03:35:38;;;;;;;1.55;0.85;;;19.10;41.20;;;;;;4935030;29;20419;-84
2022/03/07 03:38:10;;;;;;;1.45;0.70;;;18.80;41.10;;;;;;4934456;29;20058;-83
2022/03/07 03:40:42;;;;;;;1.80;0.80;;;20.80;42.80;;;;;;4934879;29;20103;-84
2022/03/07 03:43:07;;;;;;;2.15;0.80;;;19.50;41.60;;;;;;4934826;29;20051;-84
2022/03/07 03:45:36;;;;;;;2.85;1.05;;;20.30;42.10;;;;;;4933682;29;20048;-84
2022/03/07 03:48:05;;;;;;;2.65;0.90;;;19.10;43.10;;;;;;4934738;29;20051;-84
2022/03/07 03:50:39;;;;;;;2.55;0.80;;;20.60;42.60;;;;;;4918762;29;20043;-84
2022/03/07 03:53:11;;;;;;;2.67;0.70;;;19.00;42.00;;;;;;4934209;29;20138;-84
2022/03/07 03:55:45;;;;;;;1.95;0.95;;;20.40;42.30;;;;;;4934605;29;20054;-84
2022/03/07 03:58:10;;;;;;;1.90;0.80;;;20.60;42.30;;;;;;4934870;29;20110;-84
2022/03/07 04:00:36;;;;;;;3.15;0.90;;;20.20;42.00;;;;;;4933839;29;20063;-84
2022/03/07 04:03:02;;;;;;;2.40;0.90;;;19.70;41.60;;;;;;4934399;29;20139;-84
2022/03/07 04:05:30;;;;;;;2.00;0.68;;;18.70;41.80;;;;;;4934631;29;20055;-84
2022/03/07 04:07:56;;;;;;;2.15;0.95;;;19.30;42.20;;;;;;4933989;29;20138;-84
2022/03/07 04:10:21;;;;;;;2.00;0.90;;;19.00;41.90;;;;;;4934514;29;20147;-84
2022/03/07 04:12:47;;;;;;;2.25;0.80;;;17.60;40.60;;;;;;4934228;29;20056;-84
2022/03/07 04:15:13;;;;;;;2.15;1.00;;;18.90;41.70;;;;;;4933844;29;20048;-84
2022/03/07 04:17:40;;;;;;;1.38;0.70;;;19.00;41.40;;;;;;4934516;29;20039;-84
2022/03/07 04:20:06;;;;;;;2.08;0.90;;;18.20;40.90;;;;;;4933943;29;20086;-84
2022/03/07 04:22:35;;;;;;;2.00;0.95;;;19.00;41.40;;;;;;4917765;29;20043;-85
2022/03/07 04:25:01;;;;;;;2.05;0.82;;;20.40;42.20;;;;;;4933803;29;20052;-84
2022/03/07 04:27:36;;;;;;;;;;;;;;;;;;;;;
2022/03/07 04:30:10;;;;;;;1.42;0.70;;;18.90;42.20;;;;;;4933794;29;20484;-83
2022/03/07 04:32:38;;;;;;;1.42;0.60;;;18.90;43.60;;;;;;4933856;29;20043;-84
2022/03/07 04:35:05;;;;;;;2.15;0.90;;;20.20;42.00;;;;;;4933135;29;20043;-84
2022/03/07 04:37:34;;;;;;;2.08;0.82;;;19.00;41.50;;;;;;4933949;29;20056;-84
2022/03/07 04:40:04;;;;;;;1.70;0.70;;;18.40;41.80;;;;;;4933804;29;20150;-84
2022/03/07 04:42:29;;;;;;;2.22;1.00;;;18.80;41.30;;;;;;4933367;29;20095;-84
2022/03/07 04:44:55;;;;;;;2.03;0.80;;;18.90;41.50;;;;;;4933642;29;20138;-84
2022/03/07 04:47:20;;;;;;;1.80;0.80;;;18.90;41.30;;;;;;4933941;29;20138;-84
2022/03/07 04:49:49;;;;;;;2.03;0.73;;;18.90;41.30;;;;;;4933150;29;20047;-84
2022/03/07 04:52:17;;;;;;;1.80;0.80;;;18.90;41.20;;;;;;4933999;29;20056;-83
2022/03/07 04:54:42;;;;;;;2.28;0.93;;;18.90;41.30;;;;;;4933578;29;20408;-83
2022/03/07 04:57:08;;;;;;;2.20;0.85;;;18.90;41.30;;;;;;4932808;29;20048;-84
2022/03/07 04:59:34;;;;;;;1.95;0.90;;;18.90;41.30;;;;;;4933521;29;20052;-84
2022/03/07 05:01:59;;;;;;;1.70;0.73;;;18.80;41.20;;;;;;4933773;29;20063;-84
2022/03/07 05:04:25;;;;;;;2.35;0.90;;;18.90;41.30;;;;;;4933056;29;20503;-83
2022/03/07 05:06:50;;;;;;;1.50;0.80;;;18.80;41.20;;;;;;4933254;29;20393;-84
2022/03/07 05:09:16;;;;;;;1.50;0.80;;;18.80;41.20;;;;;;4933217;29;20044;-84
2022/03/07 05:11:41;;;;;;;2.42;0.90;;;18.80;41.20;;;;;;4932713;29;20051;-84
2022/03/07 05:14:07;;;;;;;3.05;0.80;;;18.80;41.20;;;;;;4933144;29;20563;-84
2022/03/07 05:16:32;;;;;;;1.27;0.70;;;18.80;41.30;;;;;;4932747;29;20106;-84
2022/03/07 05:18:58;;;;;;;2.88;0.88;;;18.80;41.20;;;;;;4933166;29;20412;-84
2022/03/07 05:21:24;;;;;;;2.78;0.88;;;18.80;41.20;;;;;;4932835;29;20040;-83
2022/03/07 05:23:49;;;;;;;2.10;0.95;;;18.80;41.20;;;;;;4932287;29;20055;-84
2022/03/07 05:26:15;;;;;;;1.40;0.65;;;18.80;41.30;;;;;;4932597;29;20138;-84
2022/03/07 05:28:40;;;;;;;1.63;0.75;;;18.80;41.20;;;;;;4932920;29;20498;-84
2022/03/07 05:31:12;;;;;;;2.08;0.80;;;18.80;41.30;;;;;;4916405;29;20073;-83
2022/03/07 05:33:38;;;;;;;1.77;0.90;;;20.30;42.00;;;;;;4932888;29;20043;-84
2022/03/07 05:36:05;;;;;;;1.42;0.70;;;18.80;41.30;;;;;;4934289;29;20051;-84
2022/03/07 05:38:30;;;;;;;1.90;0.70;;;18.80;41.20;;;;;;4932263;29;20510;-84
2022/03/07 05:40:56;;;;;;;2.05;0.80;;;18.80;41.30;;;;;;4934306;29;20043;-84
2022/03/07 05:43:30;;;;;;;2.35;0.80;;;18.70;41.20;;;;;;4932088;29;20516;-84
2022/03/07 05:45:56;;;;;;;1.77;0.70;;;19.80;41.80;;;;;;4931738;29;20520;-84
2022/03/07 05:48:36;;;;;;;2.08;0.80;;;18.80;41.30;;;;;;4931916;29;20065;-84
2022/03/07 05:51:05;;;;;;;2.22;0.70;;;18.50;41.40;;;;;;4932524;29;20051;-84
2022/03/07 05:53:39;;;;;;;1.58;0.77;;;18.30;41.30;;;;;;4932277;29;20534;-83
2022/03/07 05:56:18;;;;;;;2.50;0.73;;;18.80;41.50;;;;;;4932696;29;20110;-84
2022/03/07 05:58:43;;;;;;;1.90;0.60;;;18.50;42.20;;;;;;4931522;29;20058;-83
2022/03/07 06:01:22;;;;;;;1.75;0.80;;;18.70;41.50;;;;;;4932662;29;20154;-84
2022/03/07 06:03:47;;;;;;;1.83;0.82;;;18.70;41.30;;;;;;4932653;29;20540;-84
2022/03/07 06:06:13;;;;;;;2.08;0.80;;;18.40;41.20;;;;;;4931663;29;20043;-84
2022/03/07 06:08:38;;;;;;;2.22;0.80;;;19.00;41.40;;;;;;4932854;29;20051;-84
2022/03/07 06:11:04;;;;;;;2.15;0.90;;;18.70;41.30;;;;;;4932277;29;20055;-84
2022/03/07 06:13:30;;;;;;;1.92;0.88;;;18.70;41.20;;;;;;4931424;29;20071;-83
2022/03/07 06:15:55;;;;;;;1.95;0.80;;;18.70;41.30;;;;;;4932476;29;20056;-84
2022/03/07 06:18:21;;;;;;;1.65;0.80;;;18.70;41.20;;;;;;4932610;29;20141;-84
2022/03/07 06:20:46;;;;;;;2.42;0.82;;;18.70;41.20;;;;;;4931785;29;20455;-84
2022/03/07 06:23:12;;;;;;;2.15;0.75;;;18.70;41.30;;;;;;4932334;29;20083;-84
2022/03/07 06:25:37;;;;;;;1.67;0.77;;;18.70;41.30;;;;;;4931780;29;20057;-84
2022/03/07 06:28:03;;;;;;;2.20;0.77;;;18.70;41.30;;;;;;4931404;29;20055;-84
2022/03/07 06:30:29;;;;;;;2.13;0.73;;;18.60;41.20;;;;;;4926257;29;20378;-84
2022/03/07 06:32:55;;;;;;;2.38;0.90;;;18.60;41.20;;;;;;4934480;23;20114;-84
2022/03/07 06:35:24;;;;;;;1.67;0.80;;;18.70;41.30;;;;;;4928124;29;20415;-84
2022/03/07 06:37:51;;;;;;;1.42;0.65;;;18.60;41.30;;;;;;4923978;29;20757;-84
2022/03/07 06:40:17;;;;;;;1.52;0.80;;;18.60;41.30;;;;;;4930073;29;20066;-83
2022/03/07 06:42:43;;;;;;;2.58;1.00;;;18.70;41.30;;;;;;4924288;29;20105;-84
2022/03/07 06:45:16;;;;;;;2.05;0.80;;;18.70;41.30;;;;;;4935976;29;20059;-84
2022/03/07 06:48:00;;;;;;;2.35;0.70;;;18.70;41.30;;;;;;4921679;29;20411;-84
2022/03/07 06:50:38;;;;;;;1.10;0.60;;;18.70;41.30;;;;;;4928078;29;20106;-84
2022/03/07 06:53:06;;;;;;;1.70;0.80;;;20.10;42.10;;;;;;4932821;29;20563;-83
2022/03/07 06:55:32;;;;;;;1.58;0.85;;;19.30;41.70;;;;;;4938222;29;20835;-82
2022/03/07 06:58:07;;;;;;;3.00;0.93;;;19.70;42.10;;;;;;4938778;29;20058;-83
2022/03/07 07:00:38;;;;;;;2.13;0.80;;;18.30;41.20;;;;;;4938829;29;20047;-83
2022/03/07 07:03:06;;;;;;;1.27;0.70;;;18.20;41.30;;;;;;4925218;29;20411;-83
2022/03/07 07:06:22;;;;;;;3.10;0.90;;;18.30;41.40;;;;;;4938889;29;20055;-82
2022/03/07 07:09:12;;;;;;;1.83;0.68;;;17.80;40.80;;;;;;4938604;29;20051;-83
2022/03/07 07:11:38;;;;;;;2.28;0.88;;;18.20;41.80;;;;;;4950171;29;20095;-82
2022/03/07 07:14:31;;;;;;;1.50;0.77;;;20.00;42.40;;;;;;4936828;29;20058;-84
2022/03/07 07:16:56;;;;;;;1.35;0.70;;;18.60;41.90;;;;;;4918785;29;20047;-83
2022/03/07 07:19:25;;;;;;;1.25;0.60;;;18.60;41.40;;;;;;4919668;29;20099;-83
2022/03/07 07:21:51;;;;;;;2.38;0.90;;;19.90;42.10;;;;;;4919429;29;20059;-85
2022/03/07 07:24:16;;;;;;;1.98;0.70;;;18.60;41.80;;;;;;4918522;29;20051;-84
2022/03/07 07:26:42;;;;;;;2.35;1.10;;;18.30;41.30;;;;;;4919414;29;20047;-84
2022/03/07 07:29:07;;;;;;;1.20;0.60;;;18.50;41.30;;;;;;4931428;29;20055;-88
2022/03/07 07:31:35;;;;;;;1.50;0.73;;;17.00;40.50;;;;;;4937657;29;20455;-85
2022/03/07 07:34:01;;;;;;;1.30;0.70;;;20.00;42.10;;;;;;4922703;29;20479;-85
2022/03/07 07:36:27;;;;;;;1.50;0.70;;;18.50;41.30;;;;;;4938052;29;20491;-85
2022/03/07 07:38:52;;;;;;;1.52;0.70;;;18.80;41.40;;;;;;4937664;29;20051;-85
2022/03/07 07:41:18;;;;;;;1.67;0.73;;;18.50;41.30;;;;;;4938216;29;20058;-85
2022/03/07 07:43:49;;;;;;;1.92;0.80;;;18.50;41.40;;;;;;4938056;29;20137;-85
2022/03/07 07:46:15;;;;;;;1.90;0.80;;;18.50;41.30;;;;;;4935083;29;20138;-86
2022/03/07 07:48:40;;;;;;;1.95;0.70;;;18.50;41.30;;;;;;4920855;29;20239;-85
2022/03/07 07:51:06;;;;;;;2.00;0.70;;;18.50;41.30;;;;;;4927237;29;20136;-84
2022/03/07 07:53:32;;;;;;;2.22;0.80;;;18.50;41.40;;;;;;4938910;29;20058;-85
2022/03/07 07:55:57;;;;;;;2.75;0.70;;;18.50;41.40;;;;;;4937817;29;20055;-85
2022/03/07 07:58:23;;;;;;;2.60;1.05;;;18.50;41.30;;;;;;4937071;29;20054;-85
2022/03/07 08:00:48;;;;;;;1.90;0.82;;;18.50;41.30;;;;;;4937661;29;20047;-85
2022/03/07 08:03:14;;;;;;;2.67;0.98;;;18.50;41.30;;;;;;4937790;29;20058;-84
2022/03/07 08:05:39;;;;;;;2.50;0.90;;;18.50;41.30;;;;;;4936701;29;20142;-85
2022/03/07 08:08:05;;;;;;;1.85;0.82;;;18.50;41.30;;;;;;4937697;29;20092;-84
2022/03/07 08:10:31;;;;;;;1.90;0.85;;;18.50;41.30;;;;;;4937024;29;20539;-84
2022/03/07 08:12:58;;;;;;;3.25;0.80;;;19.90;42.10;;;;;;4936812;29;20063;-85
2022/03/07 08:15:23;;;;;;;3.03;1.10;;;18.50;41.40;;;;;;4931292;29;20055;-84
2022/03/07 08:17:50;;;;;;;2.42;0.80;;;18.50;41.40;;;;;;4925244;29;20051;-85
2022/03/07 08:20:17;;;;;;;1.90;0.70;;;18.50;41.30;;;;;;4926859;29;20467;-84
2022/03/07 08:22:43;;;;;;;1.60;0.70;;;18.50;41.30;;;;;;4931259;28;20170;-81
2022/03/07 08:25:09;;;;;;;2.20;0.90;;;18.50;41.40;;;;;;4903026;29;20082;-84
2022/03/07 08:30:43;;;;;;;1.52;0.60;;;19.00;41.60;;;;;;4894941;29;20055;-78
2022/03/07 08:33:14;;;;;;;2.83;1.10;;;18.60;42.60;;;;;;4917382;29;20064;-79
2022/03/07 08:35:43;;;;;;;1.40;0.60;;;18.50;41.40;;;;;;4918366;29;20052;-79
2022/03/07 08:38:54;;;;;;;2.53;0.90;;;18.50;42.30;;;;;;4918481;29;20051;-79
2022/03/07 08:41:34;;;;;;;1.80;0.95;;;17.80;40.90;;;;;;4916474;29;20051;-79
2022/03/07 08:43:59;;;;;;;3.28;0.90;;;18.70;41.50;;;;;;4917972;29;20048;-79
2022/03/07 08:46:41;;;;;;;2.88;0.93;;;18.80;41.50;;;;;;4917922;29;20070;-78
2022/03/07 08:49:16;;;;;;;2.58;0.80;;;19.60;42.40;;;;;;4919435;29;20047;-78
2022/03/07 08:55:07;;;;;;;2.08;0.70;;;18.90;41.50;;;;;;4926228;29;20138;-79
2022/03/07 08:57:49;;;;;;;2.50;0.95;;;18.60;41.50;;;;;;4924476;29;20103;-79
2022/03/07 09:00:15;;;;;;;3.83;0.90;;;18.60;41.30;;;;;;4925460;29;20574;-79
2022/03/07 09:02:40;;;;;;;1.98;0.80;;;18.60;41.30;;;;;;4930476;29;20102;-79
2022/03/07 09:05:09;;;;;;;2.55;0.80;;;18.60;41.30;;;;;;4926801;29;20051;-79
2022/03/07 09:07:37;;;;;;;1.85;0.90;;;18.70;41.30;;;;;;4935288;29;20053;-79
2022/03/07 09:10:25;;;;;;;3.20;0.80;;;18.70;41.30;;;;;;4910275;29;20105;-79
2022/03/07 09:13:01;;;;;;;3.00;0.90;;;20.20;42.70;;;;;;4936010;29;20423;-79
2022/03/07 09:15:27;;;;;;;2.10;0.70;;;18.20;41.40;;;;;;4936399;29;20446;-79
2022/03/07 09:17:52;;;;;;;2.00;0.70;;;18.10;41.20;;;;;;4959371;23;20052;-76
2022/03/07 09:20:19;;;;;;;1.48;0.63;;;18.70;41.20;;;;;;4936231;29;20049;-79
2022/03/07 09:22:50;;;;;;;3.17;0.70;;;18.70;41.30;;;;;;4934984;29;20082;-78
2022/03/07 09:25:16;;;;;;;2.10;0.70;;;18.70;41.20;;;;;;4919468;29;20047;-78
2022/03/07 09:27:44;;;;;;;2.20;0.77;;;18.80;41.30;;;;;;4935132;29;20044;-78
2022/03/07 09:30:15;;;;;;;2.80;0.73;;;18.70;41.20;;;;;;4926657;29;20058;-78
2022/03/07 09:35:19;;;;;;;1.73;0.68;;;18.80;41.30;;;;;;5902804;23;20063;-80
2022/03/07 09:37:47;;;;;;;2.13;0.63;;;19.90;41.80;;;;;;4934604;29;20055;-81
2022/03/07 09:40:15;;;;;;;2.00;0.60;;;18.80;41.20;;;;;;4929159;29;20385;-83
2022/03/07 09:43:44;;;;;;;1.02;0.57;;;18.80;41.10;;;;;;4929139;29;20055;-83
2022/03/07 09:50:19;;;;;;;2.20;0.60;;;18.20;41.10;;;;;;4923051;29;20054;-83
2022/03/07 10:00:29;;;;;;;2.25;0.60;;;18.00;40.60;;;;;;4940701;29;20050;-83
2022/03/07 10:03:58;;;;;;;1.27;0.73;;;18.10;40.60;;;;;;4935132;29;20495;-82
2022/03/07 10:10:53;;;;;;;2.38;0.77;;;18.80;41.00;;;;;;4893075;29;20047;-83
2022/03/07 10:14:01;;;;;;;2.20;0.80;;;18.80;41.50;;;;;;4877148;29;20044;-83
2022/03/07 10:17:04;;;;;;;1.80;0.63;;;18.10;40.70;;;;;;4856041;29;20094;-83
2022/03/07 10:19:43;;;;;;;2.28;0.70;;;19.00;41.20;;;;;;4855309;29;20144;-82
2022/03/07 10:37:17;;;;;;;2.22;0.73;;;19.00;41.20;;;;;;4931993;29;20051;-82
2022/03/07 10:39:53;;;;;;;1.70;0.60;;;19.70;41.50;;;;;;4916293;29;20048;-82
2022/03/07 10:42:19;;;;;;;2.53;0.90;;;19.00;41.20;;;;;;4915804;29;20115;-82
2022/03/07 10:47:49;;;;;;;1.98;0.70;;;19.10;41.20;;;;;;5726367;23;20074;-83
2022/03/07 10:54:15;;;;;;;1.77;0.73;;;19.30;41.20;;;;;;4840422;29;20065;-83
2022/03/07 10:57:02;;;;;;;1.60;0.60;;;20.40;43.50;;;;;;4821359;29;20058;-83
2022/03/07 10:59:37;;;;;;;1.55;0.60;;;19.60;42.00;;;;;;4825448;29;20050;-83
2022/03/07 11:02:16;;;;;;;;;;;19.90;41.90;;;;;;4839669;29;20067;-84
2022/03/07 11:05:02;;;;;;;1.80;0.50;;;19.30;41.20;;;;;;4840205;29;19974;-83
2022/03/07 11:11:51;;;;;;;2.65;0.70;;;19.00;41.10;;;;;;4855448;29;20048;-83
2022/03/07 11:15:12;;;;;;;1.58;0.60;;;18.90;41.10;;;;;;4840056;29;20057;-84
2022/03/07 11:18:20;;;;;;;1.63;0.55;;;18.80;41.00;;;;;;4838832;29;20447;-83
2022/03/07 11:21:37;;;;;;;1.15;0.47;;;20.40;41.90;;;;;;4840721;29;20116;-83
2022/03/07 11:25:09;;;;;;;2.63;1.10;;;18.20;40.70;;;;;;4792852;29;20054;-83
2022/03/07 11:27:54;;;;;;;1.48;0.55;;;18.80;40.90;;;;;;4780286;29;20123;-82
2022/03/07 11:30:50;;;;;;;2.20;0.70;;;19.30;41.60;;;;;;4769965;30;20593;-82
2022/03/07 11:34:11;;;;;;;1.25;0.50;;;19.50;41.60;;;;;;4767748;30;20055;-82
2022/03/07 11:37:17;;;;;;;1.35;0.50;;;19.50;41.40;;;;;;4765030;30;20062;-83
2022/03/07 11:40:39;;;;;;;1.27;0.52;;;19.20;41.60;;;;;;4767261;30;20082;-83
2022/03/07 12:02:08;;;;;;;2.05;0.50;;;18.90;41.10;;;;;;4859649;29;20065;-83
2022/03/07 12:04:46;;;;;;;1.92;0.60;;;19.30;41.70;;;;;;4842184;29;20049;-81
2022/03/07 12:07:25;;;;;;;2.42;0.52;;;19.50;42.00;;;;;;4879287;29;20052;-82
2022/03/07 12:10:10;;;;;;;0.80;0.40;;;20.60;42.30;;;;;;4915520;29;20071;-82
2022/03/07 12:12:42;;;;;;;1.65;0.50;;;19.40;41.80;;;;;;4914568;29;20048;-82
2022/03/07 12:15:22;;;;;;;1.98;0.60;;;20.20;43.20;;;;;;4899362;29;20088;-83
2022/03/07 12:18:01;;;;;;;1.25;0.40;;;18.90;41.30;;;;;;4915005;29;20048;-85
2022/03/07 12:20:29;;;;;;;1.05;0.40;;;21.00;42.30;;;;;;4897336;29;20094;-85
2022/03/07 12:22:55;;;;;;;0.95;0.40;;;19.40;42.20;;;;;;4914497;29;20048;-86
2022/03/07 12:25:20;;;;;;;1.23;0.38;;;20.70;42.20;;;;;;4899233;29;20052;-86
2022/03/07 12:28:07;;;;;;;2.50;0.55;;;19.40;41.80;;;;;;4914330;29;20052;-86
2022/03/07 12:30:45;;;;;;;0.60;0.30;;;18.40;40.70;;;;;;4915134;29;20052;-86
2022/03/07 12:33:19;;;;;;;1.50;0.57;;;18.40;41.20;;;;;;4913972;29;20056;-86
2022/03/07 12:35:45;;;;;;;1.70;0.47;;;17.80;40.70;;;;;;4912970;29;20070;-86
2022/03/07 12:38:42;;;;;;;1.00;0.38;;;20.50;42.70;;;;;;4914416;29;20496;-85
2022/03/07 12:44:48;;;;;;;3.13;0.80;;;19.30;40.90;;;;;;4909246;29;20052;-86
2022/03/07 13:28:43;;;;;;;4.43;2.15;;;19.70;38.30;;;;;;4880522;29;20059;-85
2022/03/07 15:33:23;;;;;;;1.58;0.20;;;20.30;37.90;;;;;;5535160;23;20055;-91
2022/03/07 15:44:37;;;;;;;0.52;0.20;;;20.90;38.10;;;;;;4954186;29;20038;-84
2022/03/07 15:47:56;;;;;;;0.45;0.20;;;19.60;37.40;;;;;;4935810;29;20091;-83
2022/03/07 15:53:31;;;;;;;1.50;0.20;;;20.50;38.00;;;;;;5085493;23;20119;-86
2022/03/07 16:02:09;;;;;;;0.95;0.10;;;20.50;38.00;;;;;;4943409;29;20050;-86
2022/03/07 16:04:56;;;;;;;0.25;0.10;;;20.60;39.40;;;;;;4974585;23;20052;-85
2022/03/07 16:07:24;;;;;;;0.63;0.20;;;21.80;38.80;;;;;;4934789;29;20052;-86
2022/03/07 16:10:02;;;;;;;0.85;0.10;;;20.80;38.70;;;;;;4934576;29;20071;-86
2022/03/07 16:12:32;;;;;;;0.20;0.10;;;19.70;37.90;;;;;;4934190;29;20404;-86
2022/03/07 16:15:07;;;;;;;0.85;0.20;;;20.20;38.20;;;;;;4934470;29;20074;-86
2022/03/07 16:17:58;;;;;;;0.50;0.10;;;20.60;38.20;;;;;;5012396;23;21265;-86
2022/03/07 16:20:25;;;;;;;0.20;0.10;;;20.60;39.20;;;;;;4936259;29;20047;-87
2022/03/07 16:26:01;;;;;;;0.88;0.10;;;20.70;38.20;;;;;;5073984;23;20471;-85
2022/03/07 16:28:27;;;;;;;0.85;0.10;;;19.90;37.80;;;;;;4937313;29;20051;-85
2022/03/07 16:31:08;;;;;;;1.38;0.20;;;20.60;38.80;;;;;;4931556;29;20103;-84
2022/03/07 16:34:02;;;;;;;0.20;0.10;;;20.30;38.10;;;;;;4922834;29;20137;-84
2022/03/07 16:36:27;;;;;;;0.35;0.10;;;20.70;38.30;;;;;;4935543;29;20395;-84
2022/03/07 16:38:53;;;;;;;0.20;0.10;;;20.70;38.30;;;;;;4920963;29;20083;-85
2022/03/07 16:41:25;;;;;;;0.47;0.03;;;20.30;38.40;;;;;;4931502;29;20066;-84
2022/03/07 16:43:54;;;;;;;0.28;0.10;;;20.40;38.70;;;;;;4935536;29;20074;-85
2022/03/07 16:46:28;;;;;;;0.47;0.10;;;20.30;39.30;;;;;;4929295;29;20523;-83
2022/03/07 16:48:53;;;;;;;0.22;0.10;;;20.30;38.50;;;;;;4924412;29;20130;-83
2022/03/07 16:51:26;;;;;;;0.85;0.15;;;20.40;38.40;;;;;;4926163;29;20180;-85
2022/03/07 16:54:04;;;;;;;0.60;0.10;;;21.70;39.20;;;;;;4916992;29;20519;-84
2022/03/07 16:56:30;;;;;;;0.30;0.10;;;21.40;39.20;;;;;;4918131;29;20074;-85
2022/03/07 16:59:02;;;;;;;0.40;0.10;;;19.90;38.30;;;;;;4886338;29;20485;-84
2022/03/07 17:01:31;;;;;;;0.20;0.10;;;20.40;38.60;;;;;;4922512;29;20543;-84
2022/03/07 17:04:05;;;;;;;0.50;0.20;;;20.40;38.50;;;;;;4926017;29;20143;-85
2022/03/07 17:07:23;;;;;;;0.20;0.10;;;20.60;38.80;;;;;;4917780;29;20043;-85
2022/03/07 17:09:49;;;;;;;0.77;0.15;;;20.70;38.80;;;;;;4930897;29;20054;-84
2022/03/07 17:12:15;;;;;;;0.20;0.10;;;21.60;39.30;;;;;;4917411;29;20465;-84
2022/03/07 17:17:44;;;;;;;0.60;0.10;;;20.60;38.70;;;;;;5935532;23;20074;-82
2022/03/07 17:20:39;;;;;;;0.70;0.20;;;20.60;38.80;;;;;;4942091;23;20055;-85
2022/03/07 17:23:36;;;;;;;0.50;0.10;;;19.70;38.30;;;;;;4935759;29;20052;-85
2022/03/07 17:26:08;;;;;;;1.00;0.10;;;19.60;38.40;;;;;;4922312;29;20526;-85
2022/03/07 17:29:06;;;;;;;0.35;0.10;;;21.30;39.40;;;;;;4916921;29;20047;-85
2022/03/07 17:31:37;;;;;;;0.40;0.10;;;19.50;38.40;;;;;;4923822;29;20539;-86
2022/03/07 17:34:17;;;;;;;0.32;0.10;;;20.50;39.10;;;;;;4928126;29;20431;-85
2022/03/07 17:47:16;;;;;;;0.47;0.20;;;19.70;38.50;;;;;;5682403;23;20138;-86